sensor_id;sensor_type;location;lat;lon;timestamp;pressure;altitude;pressure_sealevel;temperature;humidity
76216;BME280;65010;50.190;18.930;2023-03-23T00:01:57;97845.88;;;13.00;49.06
76216;BME280;65010;50.190;18.930;2023-03-23T00:05:05;97843.25;;;13.00;48.70
76216;BME280;65010;50.190;18.930;2023-03-23T00:08:15;97842.25;;;13.01;48.41
76216;BME280;65010;50.190;18.930;2023-03-23T00:11:25;97853.00;;;13.00;48.35
76216;BME280;65010;50.190;18.930;2023-03-23T00:14:34;97842.63;;;12.92;48.28
76216;BME280;65010;50.190;18.930;2023-03-23T00:17:45;97851.34;;;12.85;48.42
76216;BME280;65010;50.190;18.930;2023-03-23T00:20:54;97847.06;;;12.78;48.18
76216;BME280;65010;50.190;18.930;2023-03-23T00:24:09;97853.56;;;12.75;48.12
76216;BME280;65010;50.190;18.930;2023-03-23T00:27:19;97849.06;;;12.62;47.80
76216;BME280;65010;50.190;18.930;2023-03-23T00:30:28;97851.69;;;12.49;47.86
76216;BME280;65010;50.190;18.930;2023-03-23T00:33:38;97854.41;;;12.34;48.43
76216;BME280;65010;50.190;18.930;2023-03-23T00:36:45;97848.06;;;12.15;48.76
76216;BME280;65010;50.190;18.930;2023-03-23T00:39:55;97835.78;;;11.94;48.86
76216;BME280;65010;50.190;18.930;2023-03-23T00:43:03;97840.03;;;11.88;49.12
76216;BME280;65010;50.190;18.930;2023-03-23T00:46:12;97831.88;;;11.77;50.05
76216;BME280;65010;50.190;18.930;2023-03-23T00:49:20;97835.84;;;11.66;50.56
76216;BME280;65010;50.190;18.930;2023-03-23T00:52:29;97834.22;;;11.65;50.81
76216;BME280;65010;50.190;18.930;2023-03-23T00:55:37;97838.69;;;11.64;51.13
76216;BME280;65010;50.190;18.930;2023-03-23T00:58:45;97838.47;;;11.66;50.88
76216;BME280;65010;50.190;18.930;2023-03-23T01:01:52;97827.75;;;11.67;51.12
76216;BME280;65010;50.190;18.930;2023-03-23T01:04:59;97831.00;;;11.69;50.73
76216;BME280;65010;50.190;18.930;2023-03-23T01:08:06;97815.41;;;11.68;51.00
76216;BME280;65010;50.190;18.930;2023-03-23T01:11:16;97819.06;;;11.67;51.08
76216;BME280;65010;50.190;18.930;2023-03-23T01:14:22;97820.63;;;11.61;51.15
76216;BME280;65010;50.190;18.930;2023-03-23T01:17:29;97817.97;;;11.55;51.49
76216;BME280;65010;50.190;18.930;2023-03-23T01:20:36;97816.91;;;11.49;51.40
76216;BME280;65010;50.190;18.930;2023-03-23T01:23:45;97818.34;;;11.52;51.89
76216;BME280;65010;50.190;18.930;2023-03-23T01:26:55;97820.00;;;11.53;51.59
76216;BME280;65010;50.190;18.930;2023-03-23T01:30:07;97822.00;;;11.51;51.80
76216;BME280;65010;50.190;18.930;2023-03-23T01:33:15;97821.03;;;11.58;51.85
76216;BME280;65010;50.190;18.930;2023-03-23T01:36:24;97816.63;;;11.65;51.59
76216;BME280;65010;50.190;18.930;2023-03-23T01:39:37;97816.78;;;11.64;51.31
76216;BME280;65010;50.190;18.930;2023-03-23T01:42:47;97813.97;;;11.65;51.46
76216;BME280;65010;50.190;18.930;2023-03-23T01:45:54;97821.28;;;11.70;51.18
76216;BME280;65010;50.190;18.930;2023-03-23T01:49:05;97811.69;;;11.56;51.80
76216;BME280;65010;50.190;18.930;2023-03-23T01:52:22;97812.13;;;11.59;51.65
76216;BME280;65010;50.190;18.930;2023-03-23T01:55:41;97809.31;;;11.61;51.71
76216;BME280;65010;50.190;18.930;2023-03-23T01:58:53;97809.31;;;11.61;51.65
76216;BME280;65010;50.190;18.930;2023-03-23T02:02:02;97801.44;;;11.67;51.48
76216;BME280;65010;50.190;18.930;2023-03-23T02:05:13;97790.69;;;11.62;51.29
76216;BME280;65010;50.190;18.930;2023-03-23T02:08:23;97790.88;;;11.61;51.53
76216;BME280;65010;50.190;18.930;2023-03-23T02:11:32;97791.69;;;11.61;51.76
76216;BME280;65010;50.190;18.930;2023-03-23T02:14:42;97795.56;;;11.65;51.66
76216;BME280;65010;50.190;18.930;2023-03-23T02:17:56;97783.16;;;11.59;51.81
76216;BME280;65010;50.190;18.930;2023-03-23T02:36:58;97760.59;;;11.43;52.08
76216;BME280;65010;50.190;18.930;2023-03-23T02:40:12;97777.03;;;11.52;51.76
76216;BME280;65010;50.190;18.930;2023-03-23T02:43:30;97780.28;;;11.54;52.03
76216;BME280;65010;50.190;18.930;2023-03-23T02:46:41;97770.59;;;11.55;51.64
76216;BME280;65010;50.190;18.930;2023-03-23T02:49:54;97769.56;;;11.49;51.67
76216;BME280;65010;50.190;18.930;2023-03-23T02:53:05;97761.66;;;11.49;51.87
76216;BME280;65010;50.190;18.930;2023-03-23T02:56:17;97774.47;;;11.59;51.50
76216;BME280;65010;50.190;18.930;2023-03-23T02:59:26;97773.69;;;11.65;51.10
76216;BME280;65010;50.190;18.930;2023-03-23T03:02:35;97772.28;;;11.62;51.09
76216;BME280;65010;50.190;18.930;2023-03-23T03:05:55;97762.34;;;11.64;51.34
76216;BME280;65010;50.190;18.930;2023-03-23T03:09:23;97771.69;;;11.67;51.00
76216;BME280;65010;50.190;18.930;2023-03-23T03:12:46;97766.44;;;11.74;50.48
76216;BME280;65010;50.190;18.930;2023-03-23T03:16:08;97757.13;;;11.71;50.66
76216;BME280;65010;50.190;18.930;2023-03-23T03:19:27;97760.97;;;11.75;50.36
76216;BME280;65010;50.190;18.930;2023-03-23T03:22:44;97755.09;;;11.73;50.15
76216;BME280;65010;50.190;18.930;2023-03-23T03:25:57;97760.97;;;11.75;50.35
76216;BME280;65010;50.190;18.930;2023-03-23T03:29:22;97760.56;;;11.78;50.19
76216;BME280;65010;50.190;18.930;2023-03-23T03:32:40;97750.47;;;11.82;50.17
76216;BME280;65010;50.190;18.930;2023-03-23T03:35:56;97752.53;;;11.86;49.93
76216;BME280;65010;50.190;18.930;2023-03-23T03:39:09;97751.69;;;11.86;49.82
76216;BME280;65010;50.190;18.930;2023-03-23T03:42:19;97750.09;;;11.85;49.83
76216;BME280;65010;50.190;18.930;2023-03-23T03:45:27;97748.03;;;11.80;49.81
76216;BME280;65010;50.190;18.930;2023-03-23T03:48:34;97760.44;;;11.86;49.59
76216;BME280;65010;50.190;18.930;2023-03-23T03:51:41;97766.94;;;11.91;49.45
76216;BME280;65010;50.190;18.930;2023-03-23T03:54:58;97764.69;;;11.94;49.53
76216;BME280;65010;50.190;18.930;2023-03-23T03:58:06;97761.50;;;12.05;49.45
76216;BME280;65010;50.190;18.930;2023-03-23T04:01:35;97771.44;;;12.03;49.24
76216;BME280;65010;50.190;18.930;2023-03-23T04:04:42;97772.81;;;11.93;49.21
76216;BME280;65010;50.190;18.930;2023-03-23T04:07:49;97774.00;;;11.90;49.29
76216;BME280;65010;50.190;18.930;2023-03-23T04:11:15;97762.44;;;11.84;49.36
76216;BME280;65010;50.190;18.930;2023-03-23T04:14:55;97754.56;;;11.91;49.72
76216;BME280;65010;50.190;18.930;2023-03-23T04:18:10;97757.41;;;11.96;49.29
76216;BME280;65010;50.190;18.930;2023-03-23T04:21:20;97752.56;;;11.93;49.21
76216;BME280;65010;50.190;18.930;2023-03-23T04:24:28;97755.31;;;11.78;49.25
76216;BME280;65010;50.190;18.930;2023-03-23T04:27:59;97741.50;;;11.69;49.70
76216;BME280;65010;50.190;18.930;2023-03-23T04:31:13;97740.09;;;11.67;49.77
76216;BME280;65010;50.190;18.930;2023-03-23T04:34:23;97743.09;;;11.64;49.82
76216;BME280;65010;50.190;18.930;2023-03-23T04:37:30;97739.22;;;11.60;49.82
76216;BME280;65010;50.190;18.930;2023-03-23T04:40:40;97739.03;;;11.61;50.03
76216;BME280;65010;50.190;18.930;2023-03-23T04:44:02;97747.56;;;11.63;49.95
76216;BME280;65010;50.190;18.930;2023-03-23T04:47:16;97744.91;;;11.57;49.88
76216;BME280;65010;50.190;18.930;2023-03-23T04:50:29;97745.91;;;11.56;50.06
76216;BME280;65010;50.190;18.930;2023-03-23T04:53:48;97746.66;;;11.49;50.25
76216;BME280;65010;50.190;18.930;2023-03-23T04:56:54;97754.28;;;11.38;50.49
76216;BME280;65010;50.190;18.930;2023-03-23T05:00:07;97759.53;;;11.31;50.69
76216;BME280;65010;50.190;18.930;2023-03-23T05:03:19;97762.41;;;11.36;50.41
76216;BME280;65010;50.190;18.930;2023-03-23T05:06:28;97765.44;;;11.40;50.50
76216;BME280;65010;50.190;18.930;2023-03-23T05:09:40;97760.22;;;11.46;50.38
76216;BME280;65010;50.190;18.930;2023-03-23T05:12:49;97750.94;;;11.51;50.26
76216;BME280;65010;50.190;18.930;2023-03-23T05:16:03;97752.13;;;11.48;50.31
76216;BME280;65010;50.190;18.930;2023-03-23T05:19:17;97762.47;;;11.49;50.19
76216;BME280;65010;50.190;18.930;2023-03-23T05:22:31;97753.91;;;11.41;50.36
76216;BME280;65010;50.190;18.930;2023-03-23T05:25:51;97754.34;;;11.44;50.28
76216;BME280;65010;50.190;18.930;2023-03-23T05:29:00;97750.72;;;11.52;50.42
76216;BME280;65010;50.190;18.930;2023-03-23T05:32:21;97756.03;;;11.59;50.05
76216;BME280;65010;50.190;18.930;2023-03-23T05:35:37;97762.13;;;11.66;49.85
76216;BME280;65010;50.190;18.930;2023-03-23T05:38:51;97749.03;;;11.73;49.69
76216;BME280;65010;50.190;18.930;2023-03-23T05:42:03;97757.13;;;11.78;49.83
76216;BME280;65010;50.190;18.930;2023-03-23T05:45:27;97758.34;;;11.75;49.91
76216;BME280;65010;50.190;18.930;2023-03-23T05:48:38;97760.81;;;11.83;49.93
76216;BME280;65010;50.190;18.930;2023-03-23T05:51:51;97768.16;;;11.95;49.30
76216;BME280;65010;50.190;18.930;2023-03-23T05:54:57;97768.19;;;12.01;49.18
76216;BME280;65010;50.190;18.930;2023-03-23T05:58:04;97766.97;;;12.04;49.14
76216;BME280;65010;50.190;18.930;2023-03-23T06:01:13;97762.75;;;12.16;49.01
76216;BME280;65010;50.190;18.930;2023-03-23T06:04:23;97768.91;;;12.37;48.41
76216;BME280;65010;50.190;18.930;2023-03-23T06:07:39;97767.72;;;12.46;47.89
76216;BME280;65010;50.190;18.930;2023-03-23T06:10:46;97769.28;;;12.40;47.73
76216;BME280;65010;50.190;18.930;2023-03-23T06:13:54;97760.81;;;12.45;47.88
76216;BME280;65010;50.190;18.930;2023-03-23T06:17:01;97753.72;;;12.45;47.64
76216;BME280;65010;50.190;18.930;2023-03-23T06:20:11;97747.84;;;12.50;47.82
76216;BME280;65010;50.190;18.930;2023-03-23T06:23:19;97759.84;;;12.59;47.24
76216;BME280;65010;50.190;18.930;2023-03-23T06:26:30;97757.00;;;12.61;47.27
76216;BME280;65010;50.190;18.930;2023-03-23T06:29:43;97755.34;;;12.46;47.32
76216;BME280;65010;50.190;18.930;2023-03-23T06:32:51;97752.13;;;12.58;47.11
76216;BME280;65010;50.190;18.930;2023-03-23T06:36:21;97757.41;;;12.64;47.21
76216;BME280;65010;50.190;18.930;2023-03-23T06:39:49;97749.09;;;12.74;47.17
76216;BME280;65010;50.190;18.930;2023-03-23T06:43:04;97762.09;;;12.76;46.91
76216;BME280;65010;50.190;18.930;2023-03-23T06:46:24;97758.63;;;12.68;46.84
76216;BME280;65010;50.190;18.930;2023-03-23T06:49:49;97759.88;;;12.79;46.80
76216;BME280;65010;50.190;18.930;2023-03-23T06:53:02;97766.53;;;12.88;46.75
76216;BME280;65010;50.190;18.930;2023-03-23T06:56:09;97764.72;;;12.82;46.36
76216;BME280;65010;50.190;18.930;2023-03-23T06:59:17;97767.16;;;12.84;46.58
76216;BME280;65010;50.190;18.930;2023-03-23T07:02:24;97764.31;;;12.92;46.43
76216;BME280;65010;50.190;18.930;2023-03-23T07:05:32;97771.22;;;13.00;46.24
76216;BME280;65010;50.190;18.930;2023-03-23T07:08:44;97756.41;;;13.05;46.05
76216;BME280;65010;50.190;18.930;2023-03-23T07:11:56;97761.09;;;13.03;46.17
76216;BME280;65010;50.190;18.930;2023-03-23T07:15:13;97759.22;;;13.11;46.19
76216;BME280;65010;50.190;18.930;2023-03-23T07:18:24;97755.56;;;13.05;46.13
76216;BME280;65010;50.190;18.930;2023-03-23T07:21:33;97760.25;;;13.10;46.07
76216;BME280;65010;50.190;18.930;2023-03-23T07:24:42;97766.75;;;13.20;46.41
76216;BME280;65010;50.190;18.930;2023-03-23T07:27:54;97771.84;;;13.15;46.19
76216;BME280;65010;50.190;18.930;2023-03-23T07:31:00;97773.00;;;13.33;46.41
76216;BME280;65010;50.190;18.930;2023-03-23T07:34:07;97773.81;;;13.40;45.98
76216;BME280;65010;50.190;18.930;2023-03-23T07:37:34;97774.22;;;13.50;45.88
76216;BME280;65010;50.190;18.930;2023-03-23T07:40:45;97787.38;;;13.57;45.29
76216;BME280;65010;50.190;18.930;2023-03-23T07:43:54;97777.63;;;13.57;45.18
76216;BME280;65010;50.190;18.930;2023-03-23T07:47:10;97783.94;;;13.63;45.25
76216;BME280;65010;50.190;18.930;2023-03-23T07:50:16;97775.78;;;13.78;45.41
76216;BME280;65010;50.190;18.930;2023-03-23T07:53:25;97777.78;;;13.89;45.05
76216;BME280;65010;50.190;18.930;2023-03-23T07:56:47;97771.78;;;14.14;45.27
76216;BME280;65010;50.190;18.930;2023-03-23T08:00:01;97778.19;;;14.31;44.35
76216;BME280;65010;50.190;18.930;2023-03-23T08:03:18;97776.34;;;14.38;44.33
76216;BME280;65010;50.190;18.930;2023-03-23T08:06:43;97778.09;;;14.51;43.61
76216;BME280;65010;50.190;18.930;2023-03-23T08:10:17;97777.56;;;14.74;43.13
76216;BME280;65010;50.190;18.930;2023-03-23T08:14:00;97770.53;;;15.12;42.90
76216;BME280;65010;50.190;18.930;2023-03-23T08:17:26;97765.28;;;15.48;41.96
76216;BME280;65010;50.190;18.930;2023-03-23T08:20:51;97770.31;;;16.12;40.44
76216;BME280;65010;50.190;18.930;2023-03-23T08:24:07;97766.78;;;16.91;39.71
76216;BME280;65010;50.190;18.930;2023-03-23T08:27:26;97762.06;;;17.28;38.21
76216;BME280;65010;50.190;18.930;2023-03-23T08:30:50;97754.84;;;17.88;37.90
76216;BME280;65010;50.190;18.930;2023-03-23T08:34:30;97761.22;;;18.90;35.59
76216;BME280;65010;50.190;18.930;2023-03-23T08:37:45;97755.31;;;19.77;34.66
76216;BME280;65010;50.190;18.930;2023-03-23T08:41:10;97762.78;;;19.58;33.36
76216;BME280;65010;50.190;18.930;2023-03-23T08:44:28;97776.88;;;19.37;32.67
76216;BME280;65010;50.190;18.930;2023-03-23T08:48:01;97765.97;;;19.38;33.37
76216;BME280;65010;50.190;18.930;2023-03-23T08:51:25;97764.94;;;19.39;32.76
76216;BME280;65010;50.190;18.930;2023-03-23T08:55:01;97761.16;;;19.01;33.57
76216;BME280;65010;50.190;18.930;2023-03-23T08:58:25;97758.06;;;18.76;34.15
76216;BME280;65010;50.190;18.930;2023-03-23T09:01:35;97744.59;;;18.49;33.88
76216;BME280;65010;50.190;18.930;2023-03-23T09:04:54;97768.09;;;18.85;34.17
76216;BME280;65010;50.190;18.930;2023-03-23T09:08:07;97760.91;;;19.59;32.23
76216;BME280;65010;50.190;18.930;2023-03-23T09:11:17;97741.63;;;20.40;31.70
76216;BME280;65010;50.190;18.930;2023-03-23T09:14:25;97757.34;;;20.96;30.01
76216;BME280;65010;50.190;18.930;2023-03-23T09:17:32;97758.69;;;21.36;29.81
76216;BME280;65010;50.190;18.930;2023-03-23T09:20:41;97764.09;;;21.46;30.12
76216;BME280;65010;50.190;18.930;2023-03-23T09:23:47;97753.19;;;21.58;29.47
76216;BME280;65010;50.190;18.930;2023-03-23T09:26:54;97758.81;;;21.61;29.05
76216;BME280;65010;50.190;18.930;2023-03-23T09:30:01;97759.44;;;21.69;29.43
76216;BME280;65010;50.190;18.930;2023-03-23T09:33:09;97764.31;;;21.39;29.03
76216;BME280;65010;50.190;18.930;2023-03-23T09:36:19;97757.94;;;21.03;29.59
76216;BME280;65010;50.190;18.930;2023-03-23T09:39:27;97764.69;;;20.83;29.99
76216;BME280;65010;50.190;18.930;2023-03-23T09:42:47;97766.69;;;20.66;30.21
76216;BME280;65010;50.190;18.930;2023-03-23T09:46:25;97774.69;;;20.66;30.84
76216;BME280;65010;50.190;18.930;2023-03-23T09:49:45;97777.16;;;20.73;30.46
76216;BME280;65010;50.190;18.930;2023-03-23T09:53:08;97765.25;;;21.18;30.09
76216;BME280;65010;50.190;18.930;2023-03-23T09:56:21;97759.47;;;21.79;28.95
76216;BME280;65010;50.190;18.930;2023-03-23T09:59:41;97739.84;;;22.36;26.66
76216;BME280;65010;50.190;18.930;2023-03-23T10:02:59;97759.75;;;22.81;25.69
76216;BME280;65010;50.190;18.930;2023-03-23T10:06:14;97745.78;;;22.95;25.76
76216;BME280;65010;50.190;18.930;2023-03-23T10:09:25;97733.47;;;22.73;25.58
76216;BME280;65010;50.190;18.930;2023-03-23T10:12:39;97744.94;;;22.38;25.73
76216;BME280;65010;50.190;18.930;2023-03-23T10:15:55;97741.50;;;22.53;26.18
76216;BME280;65010;50.190;18.930;2023-03-23T10:19:11;97742.84;;;22.71;25.28
76216;BME280;65010;50.190;18.930;2023-03-23T10:22:42;97728.09;;;22.89;24.60
76216;BME280;65010;50.190;18.930;2023-03-23T10:26:06;97728.63;;;23.32;24.20
76216;BME280;65010;50.190;18.930;2023-03-23T10:29:26;97713.47;;;23.72;23.35
76216;BME280;65010;50.190;18.930;2023-03-23T10:32:45;97722.56;;;23.81;23.39
76216;BME280;65010;50.190;18.930;2023-03-23T10:36:00;97726.63;;;23.63;23.96
76216;BME280;65010;50.190;18.930;2023-03-23T10:39:15;97711.75;;;22.75;24.04
76216;BME280;65010;50.190;18.930;2023-03-23T10:42:30;97707.88;;;21.94;24.90
76216;BME280;65010;50.190;18.930;2023-03-23T10:45:43;97728.97;;;21.27;26.62
76216;BME280;65010;50.190;18.930;2023-03-23T10:49:06;97713.31;;;20.39;27.50
76216;BME280;65010;50.190;18.930;2023-03-23T10:52:33;97728.66;;;19.77;28.76
76216;BME280;65010;50.190;18.930;2023-03-23T10:55:41;97736.44;;;19.23;29.52
76216;BME280;65010;50.190;18.930;2023-03-23T10:58:55;97741.13;;;18.82;30.36
76216;BME280;65010;50.190;18.930;2023-03-23T11:02:03;97743.38;;;18.56;31.18
76216;BME280;65010;50.190;18.930;2023-03-23T11:05:38;97733.41;;;18.35;31.54
76216;BME280;65010;50.190;18.930;2023-03-23T11:08:52;97745.56;;;18.31;31.68
76216;BME280;65010;50.190;18.930;2023-03-23T11:12:01;97734.19;;;18.18;31.79
76216;BME280;65010;50.190;18.930;2023-03-23T11:15:27;97732.94;;;18.09;32.03
76216;BME280;65010;50.190;18.930;2023-03-23T11:18:39;97738.06;;;17.99;32.23
76216;BME280;65010;50.190;18.930;2023-03-23T11:21:53;97735.44;;;17.87;32.56
76216;BME280;65010;50.190;18.930;2023-03-23T11:25:13;97733.22;;;17.84;32.80
76216;BME280;65010;50.190;18.930;2023-03-23T11:28:32;97732.56;;;17.89;32.75
76216;BME280;65010;50.190;18.930;2023-03-23T11:31:46;97727.81;;;17.91;32.79
76216;BME280;65010;50.190;18.930;2023-03-23T11:34:59;97718.13;;;17.84;32.40
76216;BME280;65010;50.190;18.930;2023-03-23T11:38:20;97717.06;;;17.85;32.82
76216;BME280;65010;50.190;18.930;2023-03-23T11:41:35;97719.63;;;17.80;32.87
76216;BME280;65010;50.190;18.930;2023-03-23T11:44:44;97719.28;;;17.77;33.20
76216;BME280;65010;50.190;18.930;2023-03-23T11:48:01;97709.38;;;17.72;33.10
76216;BME280;65010;50.190;18.930;2023-03-23T11:51:30;97714.00;;;17.65;33.41
76216;BME280;65010;50.190;18.930;2023-03-23T11:54:47;97721.03;;;17.71;33.21
76216;BME280;65010;50.190;18.930;2023-03-23T11:58:09;97722.53;;;17.67;33.59
76216;BME280;65010;50.190;18.930;2023-03-23T12:01:30;97719.66;;;17.69;33.84
76216;BME280;65010;50.190;18.930;2023-03-23T12:05:15;97718.94;;;17.73;33.53
76216;BME280;65010;50.190;18.930;2023-03-23T12:08:59;97714.78;;;17.77;33.75
76216;BME280;65010;50.190;18.930;2023-03-23T12:12:22;97710.94;;;17.85;34.09
76216;BME280;65010;50.190;18.930;2023-03-23T12:15:47;97714.03;;;17.94;33.84
76216;BME280;65010;50.190;18.930;2023-03-23T12:19:10;97716.00;;;17.98;33.40
76216;BME280;65010;50.190;18.930;2023-03-23T12:22:40;97712.22;;;18.11;33.66
76216;BME280;65010;50.190;18.930;2023-03-23T12:26:15;97714.69;;;18.01;33.45
76216;BME280;65010;50.190;18.930;2023-03-23T12:29:52;97701.41;;;18.01;33.65
76216;BME280;65010;50.190;18.930;2023-03-23T12:33:21;97707.28;;;18.03;33.57
76216;BME280;65010;50.190;18.930;2023-03-23T12:36:53;97705.94;;;18.00;33.64
76216;BME280;65010;50.190;18.930;2023-03-23T12:40:30;97711.72;;;17.97;33.82
76216;BME280;65010;50.190;18.930;2023-03-23T12:43:51;97708.41;;;17.90;33.87
76216;BME280;65010;50.190;18.930;2023-03-23T12:47:32;97730.81;;;17.94;33.73
76216;BME280;65010;50.190;18.930;2023-03-23T12:51:15;97688.66;;;17.86;34.08
76216;BME280;65010;50.190;18.930;2023-03-23T12:54:31;97709.31;;;17.84;34.18
76216;BME280;65010;50.190;18.930;2023-03-23T12:57:48;97695.56;;;17.87;34.32
76216;BME280;65010;50.190;18.930;2023-03-23T13:01:07;97700.41;;;17.90;33.93
76216;BME280;65010;50.190;18.930;2023-03-23T13:04:23;97708.84;;;17.87;34.20
76216;BME280;65010;50.190;18.930;2023-03-23T13:07:41;97706.44;;;17.85;34.02
76216;BME280;65010;50.190;18.930;2023-03-23T13:10:58;97712.56;;;17.86;34.12
76216;BME280;65010;50.190;18.930;2023-03-23T13:14:23;97707.81;;;17.88;34.16
76216;BME280;65010;50.190;18.930;2023-03-23T13:17:47;97708.47;;;17.95;34.17
76216;BME280;65010;50.190;18.930;2023-03-23T13:21:08;97696.81;;;17.96;33.66
76216;BME280;65010;50.190;18.930;2023-03-23T13:24:25;97693.38;;;18.13;33.79
76216;BME280;65010;50.190;18.930;2023-03-23T13:27:34;97691.31;;;18.32;33.64
76216;BME280;65010;50.190;18.930;2023-03-23T13:30:53;97681.16;;;18.45;32.89
76216;BME280;65010;50.190;18.930;2023-03-23T13:34:04;97682.53;;;18.48;33.00
76216;BME280;65010;50.190;18.930;2023-03-23T13:37:22;97667.50;;;18.54;32.47
76216;BME280;65010;50.190;18.930;2023-03-23T13:40:31;97651.84;;;18.74;32.67
76216;BME280;65010;50.190;18.930;2023-03-23T13:43:39;97658.50;;;18.94;32.50
76216;BME280;65010;50.190;18.930;2023-03-23T13:47:06;97659.31;;;18.94;32.15
76216;BME280;65010;50.190;18.930;2023-03-23T13:50:27;97651.75;;;18.86;31.69
76216;BME280;65010;50.190;18.930;2023-03-23T13:53:45;97656.66;;;18.94;32.03
76216;BME280;65010;50.190;18.930;2023-03-23T13:56:56;97654.06;;;18.99;31.68
76216;BME280;65010;50.190;18.930;2023-03-23T14:00:26;97644.53;;;19.03;31.97
76216;BME280;65010;50.190;18.930;2023-03-23T14:03:47;97653.41;;;19.09;31.77
76216;BME280;65010;50.190;18.930;2023-03-23T14:06:56;97648.56;;;19.06;31.45
76216;BME280;65010;50.190;18.930;2023-03-23T14:10:06;97651.47;;;19.04;31.81
76216;BME280;65010;50.190;18.930;2023-03-23T14:13:19;97644.31;;;19.05;31.66
76216;BME280;65010;50.190;18.930;2023-03-23T14:16:35;97639.31;;;18.92;31.65
76216;BME280;65010;50.190;18.930;2023-03-23T14:19:52;97647.63;;;18.78;31.87
76216;BME280;65010;50.190;18.930;2023-03-23T14:23:16;97649.16;;;18.74;32.16
76216;BME280;65010;50.190;18.930;2023-03-23T14:26:24;97658.69;;;18.70;31.97
76216;BME280;65010;50.190;18.930;2023-03-23T14:29:30;97661.13;;;18.72;31.93
76216;BME280;65010;50.190;18.930;2023-03-23T14:32:37;97654.44;;;18.69;32.19
76216;BME280;65010;50.190;18.930;2023-03-23T14:35:46;97652.25;;;18.83;32.78
76216;BME280;65010;50.190;18.930;2023-03-23T14:39:01;97652.88;;;18.90;31.99
76216;BME280;65010;50.190;18.930;2023-03-23T14:42:14;97651.41;;;18.82;31.75
76216;BME280;65010;50.190;18.930;2023-03-23T14:45:25;97654.91;;;18.83;31.65
76216;BME280;65010;50.190;18.930;2023-03-23T14:48:31;97641.75;;;18.76;31.92
76216;BME280;65010;50.190;18.930;2023-03-23T14:51:47;97638.47;;;18.69;31.87
76216;BME280;65010;50.190;18.930;2023-03-23T14:55:11;97635.47;;;18.65;32.08
76216;BME280;65010;50.190;18.930;2023-03-23T14:58:21;97647.41;;;18.63;32.22
76216;BME280;65010;50.190;18.930;2023-03-23T15:01:32;97645.00;;;18.61;32.38
76216;BME280;65010;50.190;18.930;2023-03-23T15:04:45;97652.19;;;18.61;32.48
76216;BME280;65010;50.190;18.930;2023-03-23T15:08:03;97642.81;;;18.58;32.91
76216;BME280;65010;50.190;18.930;2023-03-23T15:11:24;97654.31;;;18.47;32.59
76216;BME280;65010;50.190;18.930;2023-03-23T15:14:44;97651.50;;;18.37;32.54
76216;BME280;65010;50.190;18.930;2023-03-23T15:17:53;97643.94;;;18.29;32.87
76216;BME280;65010;50.190;18.930;2023-03-23T15:21:09;97646.81;;;18.27;33.00
76216;BME280;65010;50.190;18.930;2023-03-23T15:24:37;97646.03;;;18.27;33.07
76216;BME280;65010;50.190;18.930;2023-03-23T15:27:51;97639.63;;;18.28;33.04
76216;BME280;65010;50.190;18.930;2023-03-23T15:31:03;97636.91;;;18.22;32.73
76216;BME280;65010;50.190;18.930;2023-03-23T15:34:25;97638.66;;;18.17;32.82
76216;BME280;65010;50.190;18.930;2023-03-23T15:37:44;97635.22;;;18.16;32.79
76216;BME280;65010;50.190;18.930;2023-03-23T15:41:03;97634.16;;;18.17;32.85
76216;BME280;65010;50.190;18.930;2023-03-23T15:44:22;97635.78;;;18.18;32.79
76216;BME280;65010;50.190;18.930;2023-03-23T15:47:38;97638.66;;;18.17;32.76
76216;BME280;65010;50.190;18.930;2023-03-23T15:50:51;97641.72;;;18.09;32.96
76216;BME280;65010;50.190;18.930;2023-03-23T15:53:59;97648.38;;;17.94;34.23
76216;BME280;65010;50.190;18.930;2023-03-23T15:57:14;97657.06;;;17.90;33.86
76216;BME280;65010;50.190;18.930;2023-03-23T16:00:22;97638.59;;;17.83;34.08
76216;BME280;65010;50.190;18.930;2023-03-23T16:03:38;97650.25;;;17.82;34.14
76216;BME280;65010;50.190;18.930;2023-03-23T16:06:51;97657.22;;;17.83;34.52
76216;BME280;65010;50.190;18.930;2023-03-23T16:10:01;97653.81;;;17.88;35.01
76216;BME280;65010;50.190;18.930;2023-03-23T16:13:10;97660.53;;;17.90;34.69
76216;BME280;65010;50.190;18.930;2023-03-23T16:16:20;97655.69;;;17.87;34.60
76216;BME280;65010;50.190;18.930;2023-03-23T16:19:28;97665.88;;;17.90;34.61
76216;BME280;65010;50.190;18.930;2023-03-23T16:22:36;97661.41;;;17.96;34.69
76216;BME280;65010;50.190;18.930;2023-03-23T16:25:56;97658.53;;;17.97;34.25
76216;BME280;65010;50.190;18.930;2023-03-23T16:29:13;97658.06;;;18.00;34.51
76216;BME280;65010;50.190;18.930;2023-03-23T16:32:35;97659.59;;;17.96;34.49
76216;BME280;65010;50.190;18.930;2023-03-23T16:35:48;97657.88;;;17.90;34.27
76216;BME280;65010;50.190;18.930;2023-03-23T16:38:59;97676.00;;;17.93;34.85
76216;BME280;65010;50.190;18.930;2023-03-23T16:42:07;97668.03;;;17.93;34.92
76216;BME280;65010;50.190;18.930;2023-03-23T16:45:17;97677.88;;;17.93;34.54
76216;BME280;65010;50.190;18.930;2023-03-23T16:48:26;97684.47;;;17.90;34.59
76216;BME280;65010;50.190;18.930;2023-03-23T16:51:32;97677.75;;;17.88;34.99
76216;BME280;65010;50.190;18.930;2023-03-23T16:54:54;97667.03;;;17.82;34.99
76216;BME280;65010;50.190;18.930;2023-03-23T16:58:01;97668.63;;;17.83;35.71
76216;BME280;65010;50.190;18.930;2023-03-23T17:01:21;97671.78;;;17.80;35.92
76216;BME280;65010;50.190;18.930;2023-03-23T17:04:28;97656.44;;;17.71;35.20
76216;BME280;65010;50.190;18.930;2023-03-23T17:07:39;97657.06;;;17.61;35.74
76216;BME280;65010;50.190;18.930;2023-03-23T17:10:47;97668.47;;;17.61;36.15
76216;BME280;65010;50.190;18.930;2023-03-23T17:13:55;97661.78;;;17.59;36.43
76216;BME280;65010;50.190;18.930;2023-03-23T17:17:04;97669.75;;;17.59;36.73